createdAt,value
2023-04-19T00:00:19.974Z,12.37
2023-04-19T00:05:24.698Z,12.53
2023-04-19T00:10:27.817Z,13.17
2023-04-19T00:15:32.684Z,12.17
2023-04-19T00:20:36.273Z,11.73
2023-04-19T00:25:39.554Z,11.80
2023-04-19T00:30:43.971Z,13.27
2023-04-19T00:35:47.034Z,10.97
2023-04-19T00:40:50.143Z,11.53
2023-04-19T00:45:54.756Z,12.43
2023-04-19T00:50:57.964Z,11.77
2023-04-19T00:56:04.685Z,12.93
2023-04-19T01:01:09.101Z,13.20
2023-04-19T01:06:12.300Z,12.30
2023-04-19T01:11:15.374Z,11.50
2023-04-19T01:16:20.115Z,12.13
2023-04-19T01:21:23.384Z,12.37
2023-04-19T01:26:27.749Z,13.53
2023-04-19T01:31:30.879Z,12.43
2023-04-19T01:36:33.971Z,12.77
2023-04-19T01:41:38.326Z,13.53
2023-04-19T01:46:42.654Z,13.10
2023-04-19T01:51:46.562Z,14.63
2023-04-19T01:56:50.941Z,15.50
2023-04-19T02:01:53.998Z,16.33
2023-04-19T02:06:57.014Z,16.07
2023-04-19T02:12:01.447Z,16.10
2023-04-19T02:17:04.519Z,16.73
2023-04-19T02:22:07.905Z,15.83
2023-04-19T02:27:12.770Z,16.40
2023-04-19T02:32:15.857Z,16.07
2023-04-19T02:37:19.149Z,16.17
2023-04-19T02:42:23.486Z,14.87
2023-04-19T02:47:26.576Z,16.37
2023-04-19T02:52:29.606Z,15.17
2023-04-19T02:57:34.015Z,16.30
2023-04-19T03:02:37.973Z,16.40
2023-04-19T03:07:42.530Z,17.57
2023-04-19T03:12:48.733Z,16.70
2023-04-19T03:17:51.955Z,16.77
2023-04-19T03:22:54.992Z,16.67
2023-04-19T03:27:59.511Z,17.27
2023-04-19T03:33:02.522Z,17.70
2023-04-19T03:38:05.609Z,16.93
2023-04-19T03:43:10.006Z,17.40
2023-04-19T03:48:13.017Z,17.50
2023-04-19T03:53:16.055Z,17.23
2023-04-19T03:58:20.405Z,16.73
2023-04-19T04:03:23.777Z,17.57
2023-04-19T04:08:27.044Z,16.40
2023-04-19T04:13:31.443Z,16.23
2023-04-19T04:18:34.474Z,17.23
2023-04-19T04:23:37.741Z,16.97
2023-04-19T04:28:42.326Z,15.53
2023-04-19T04:33:46.243Z,16.37
2023-04-19T04:38:49.883Z,15.63
2023-04-19T04:44:10.775Z,14.93
2023-04-19T04:49:15.441Z,14.27
2023-04-19T04:54:18.808Z,13.50
2023-04-19T04:59:23.172Z,14.40
2023-04-19T05:04:26.700Z,14.63
2023-04-19T05:09:29.730Z,15.57
2023-04-19T05:14:34.438Z,14.23
2023-04-19T05:19:37.726Z,13.73
2023-04-19T05:24:42.407Z,14.43
2023-04-19T05:29:46.953Z,13.37
2023-04-19T05:34:49.998Z,13.47
2023-04-19T05:39:53.112Z,12.13
2023-04-19T05:44:57.472Z,11.40
2023-04-19T05:50:01.027Z,11.80
2023-04-19T05:55:04.675Z,10.90
2023-04-19T06:00:10.801Z,10.17
2023-04-19T06:05:14.374Z,8.23
2023-04-19T06:10:17.992Z,9.40
2023-04-19T06:15:26.159Z,8.27
2023-04-19T06:20:29.191Z,7.03
2023-04-19T06:25:32.247Z,6.87
2023-04-19T06:30:36.617Z,7.10
2023-04-19T06:35:39.647Z,6.70
2023-04-19T06:40:42.641Z,5.67
2023-04-19T06:45:47.483Z,6.30
2023-04-19T06:50:50.562Z,6.00
2023-04-19T06:55:59.532Z,5.63
2023-04-19T07:01:04.391Z,6.00
2023-04-19T07:06:07.955Z,5.83
2023-04-19T07:11:11.213Z,5.90
2023-04-19T07:16:15.693Z,5.70
2023-04-19T07:21:19.228Z,5.63
2023-04-19T07:26:22.319Z,5.93
2023-04-19T07:31:26.956Z,5.77
2023-04-19T07:36:31.419Z,5.37
2023-04-19T07:41:36.086Z,5.07
2023-04-19T07:46:43.903Z,5.20
2023-04-19T07:51:46.959Z,5.00
2023-04-19T07:56:50.110Z,5.30
2023-04-19T08:01:54.546Z,5.70
2023-04-19T08:06:58.156Z,5.07
2023-04-19T08:12:01.286Z,5.20
2023-04-19T08:17:24.136Z,5.50
2023-04-19T08:22:28.779Z,4.70
2023-04-19T08:27:31.976Z,4.67
2023-04-19T08:32:36.371Z,5.57
2023-04-19T08:37:39.404Z,5.20
2023-04-19T08:42:42.863Z,5.90
2023-04-19T08:47:59.972Z,5.37
2023-04-19T08:53:21.113Z,5.78
2023-04-19T08:58:41.313Z,4.73
2023-04-19T09:04:02.569Z,5.50
2023-04-19T09:14:24.658Z,5.05
2023-04-19T09:19:46.911Z,4.68
2023-04-19T09:29:57.510Z,5.10
2023-04-19T09:35:01.866Z,6.00
2023-04-19T09:40:23.427Z,6.00
2023-04-19T09:45:30.868Z,5.82
2023-04-19T09:50:46.880Z,5.10
2023-04-19T09:56:02.260Z,5.20
2023-04-19T10:01:15.136Z,6.05
2023-04-19T10:11:33.737Z,5.25
2023-04-19T10:16:38.896Z,5.00
2023-04-19T10:21:46.412Z,4.95
2023-04-19T10:27:12.218Z,4.93
2023-04-19T10:32:16.261Z,4.70
2023-04-19T10:37:23.750Z,4.78
2023-04-19T10:42:44.354Z,4.78
2023-04-19T10:47:47.505Z,4.70
2023-04-19T10:52:51.975Z,4.20
2023-04-19T10:58:06.173Z,4.45
2023-04-19T11:03:46.973Z,4.05
2023-04-19T11:08:52.153Z,3.05
2023-04-19T11:13:57.858Z,2.70
2023-04-19T11:19:01.180Z,2.83
2023-04-19T11:24:09.058Z,3.10
2023-04-19T11:29:12.279Z,2.90
2023-04-19T11:34:16.127Z,3.05
2023-04-19T11:39:21.393Z,2.50
2023-04-19T11:44:24.548Z,2.55
2023-04-19T11:49:29.142Z,2.53
2023-04-19T11:54:33.888Z,2.22
2023-04-19T11:59:37.899Z,1.90
2023-04-19T12:04:42.034Z,1.80
2023-04-19T12:09:49.864Z,1.63
2023-04-19T12:14:53.561Z,1.60
2023-04-19T12:19:56.605Z,1.50
2023-04-19T12:25:00.938Z,1.83
2023-04-19T12:30:04.525Z,1.70
2023-04-19T12:35:08.626Z,1.50
2023-04-19T12:40:14.791Z,1.58
2023-04-19T12:45:19.277Z,1.67
2023-04-19T12:50:22.399Z,1.58
2023-04-19T12:55:26.832Z,1.40
2023-04-19T13:00:30.179Z,1.40
2023-04-19T13:05:33.263Z,1.60
2023-04-19T13:10:37.613Z,1.40
2023-04-19T13:15:41.837Z,1.50
2023-04-19T13:20:44.853Z,1.60
2023-04-19T13:25:49.199Z,2.60
2023-04-19T13:30:52.819Z,1.80
2023-04-19T13:35:55.876Z,1.60
2023-04-19T13:41:00.327Z,1.77
2023-04-19T13:46:03.348Z,1.53
2023-04-19T13:51:07.647Z,1.67
2023-04-19T13:56:12.021Z,1.80
2023-04-19T14:01:15.157Z,2.20
2023-04-19T14:06:18.224Z,2.20
2023-04-19T14:11:23.737Z,2.37
2023-04-19T14:16:26.882Z,2.30
2023-04-19T14:21:31.646Z,2.73
2023-04-19T14:26:36.056Z,2.87
2023-04-19T14:31:39.119Z,2.73
2023-04-19T14:36:42.170Z,2.50
2023-04-19T14:41:46.511Z,3.33
2023-04-19T14:46:49.493Z,2.80
2023-04-19T14:51:52.873Z,2.97
2023-04-19T14:56:57.257Z,2.80
2023-04-19T15:02:00.329Z,2.90
2023-04-19T15:07:03.948Z,3.10
2023-04-19T15:12:08.477Z,3.20
2023-04-19T15:17:11.488Z,3.37
2023-04-19T15:22:14.991Z,3.07
2023-04-19T15:27:19.673Z,3.10
2023-04-19T15:32:22.901Z,3.20
2023-04-19T15:37:28.470Z,2.73
2023-04-19T15:42:33.003Z,3.17
2023-04-19T15:47:36.480Z,3.13
2023-04-19T15:52:39.958Z,2.90
2023-04-19T15:57:45.522Z,3.13
2023-04-19T16:02:49.280Z,3.20
2023-04-19T16:08:02.604Z,3.17
2023-04-19T16:13:07.505Z,3.17
2023-04-19T16:18:11.177Z,2.97
2023-04-19T16:23:14.544Z,2.90
2023-04-19T16:28:19.775Z,3.10
2023-04-19T16:33:22.871Z,3.17
2023-04-19T16:38:26.015Z,3.23
2023-04-19T16:43:30.388Z,2.90
2023-04-19T16:48:33.743Z,2.70
2023-04-19T16:53:36.808Z,2.60
2023-04-19T16:58:41.217Z,2.80
2023-04-19T17:03:45.768Z,2.80
2023-04-19T17:08:49.023Z,3.10
2023-04-19T17:13:55.284Z,3.20
2023-04-19T17:18:59.700Z,3.00
2023-04-19T17:24:02.707Z,3.00
2023-04-19T17:29:07.152Z,3.30
2023-04-19T17:34:10.192Z,3.20
2023-04-19T17:39:13.206Z,3.30
2023-04-19T17:44:17.660Z,3.00
2023-04-19T17:49:21.678Z,2.90
2023-04-19T17:54:25.076Z,2.60
2023-04-19T17:59:29.800Z,2.90
2023-04-19T18:04:32.895Z,7.53
2023-04-19T18:09:35.975Z,3.10
2023-04-19T18:14:40.305Z,6.40
2023-04-19T18:19:43.354Z,10.90
2023-04-19T18:24:47.333Z,16.07
2023-04-19T18:29:52.974Z,5.77
2023-04-19T18:34:56.046Z,6.63
2023-04-19T18:39:59.058Z,4.80
2023-04-19T18:45:04.182Z,3.83
2023-04-19T18:50:08.933Z,2.93
2023-04-19T18:55:13.694Z,2.70
2023-04-19T19:00:19.881Z,2.97
2023-04-19T19:05:23.112Z,2.77
2023-04-19T19:10:48.542Z,3.00
2023-04-19T19:15:50.716Z,3.00
2023-04-19T19:20:58.119Z,2.93
2023-04-19T19:26:01.751Z,3.40
2023-04-19T19:31:06.759Z,3.30
2023-04-19T19:36:10.262Z,4.40
2023-04-19T19:46:22.792Z,3.83
2023-04-19T19:56:53.827Z,5.87
2023-04-19T20:02:03.800Z,3.90
2023-04-19T20:07:32.476Z,3.63
2023-04-19T20:12:29.945Z,5.10
2023-04-19T20:17:34.356Z,3.77
2023-04-19T20:22:37.720Z,3.50
2023-04-19T20:27:41.022Z,3.27
2023-04-19T20:32:45.713Z,3.77
2023-04-19T20:37:48.830Z,3.60
2023-04-19T20:42:51.972Z,3.80
2023-04-19T20:47:59.691Z,3.53
2023-04-19T20:53:02.765Z,3.40
2023-04-19T20:58:05.954Z,3.50
2023-04-19T21:03:10.588Z,3.30
2023-04-19T21:08:16.017Z,3.73
2023-04-19T21:13:19.061Z,3.87
2023-04-19T21:18:24.522Z,4.10
2023-04-19T21:23:28.366Z,3.83
2023-04-19T21:28:31.738Z,3.90
2023-04-19T21:33:36.551Z,4.17
2023-04-19T21:38:39.619Z,4.37
2023-04-19T21:43:42.637Z,4.47
2023-04-19T21:48:46.981Z,4.07
2023-04-19T21:53:50.381Z,3.90
2023-04-19T21:58:53.380Z,4.00
2023-04-19T22:03:58.600Z,4.03
2023-04-19T22:09:02.981Z,4.33
2023-04-19T22:14:06.676Z,4.00
2023-04-19T22:19:11.423Z,4.37
2023-04-19T22:24:14.826Z,4.40
2023-04-19T22:29:18.517Z,4.67
2023-04-19T22:34:23.095Z,4.50
2023-04-19T22:39:26.816Z,5.07
2023-04-19T22:44:29.919Z,5.60
2023-04-19T22:49:35.112Z,4.60
2023-04-19T22:54:38.166Z,5.33
2023-04-19T22:59:41.799Z,5.13
2023-04-19T23:04:48.447Z,4.80
2023-04-19T23:09:51.700Z,4.80
2023-04-19T23:14:55.154Z,4.63
2023-04-19T23:19:59.885Z,4.80
2023-04-19T23:25:02.920Z,5.00
2023-04-19T23:30:08.269Z,5.20
2023-04-19T23:35:12.754Z,4.60
2023-04-19T23:40:15.794Z,5.63
2023-04-19T23:45:18.934Z,4.93
2023-04-19T23:50:23.429Z,4.70
2023-04-19T23:55:26.503Z,5.20
